createdAt,value
2022-11-17T00:00:25.916Z,21.42
2022-11-17T00:02:53.205Z,20.25
2022-11-17T00:05:20.079Z,18.60
2022-11-17T00:07:47.038Z,18.13
2022-11-17T00:10:13.873Z,12.87
2022-11-17T00:12:41.192Z,14.32
2022-11-17T00:15:08.619Z,13.48
2022-11-17T00:17:35.719Z,14.10
2022-11-17T00:20:02.557Z,10.35
2022-11-17T00:22:31.439Z,10.73
2022-11-17T00:24:58.415Z,11.05
2022-11-17T00:27:25.179Z,9.15
2022-11-17T00:29:52.992Z,12.75
2022-11-17T00:32:20.248Z,12.00
2022-11-17T00:34:47.077Z,10.40
2022-11-17T00:37:15.731Z,10.50
2022-11-17T00:39:42.635Z,11.93
2022-11-17T00:42:09.333Z,13.73
2022-11-17T00:44:36.190Z,13.48
2022-11-17T00:47:03.128Z,11.27
2022-11-17T00:49:29.854Z,13.25
2022-11-17T00:51:57.154Z,12.63
2022-11-17T00:54:24.054Z,14.10
2022-11-17T00:56:51.243Z,12.82
2022-11-17T00:59:18.231Z,13.03
2022-11-17T01:01:45.460Z,14.05
2022-11-17T01:04:13.778Z,16.95
2022-11-17T01:06:43.697Z,14.88
2022-11-17T01:09:14.295Z,15.00
2022-11-17T01:11:41.889Z,14.87
2022-11-17T01:14:13.002Z,13.40
2022-11-17T01:16:39.958Z,14.80
2022-11-17T01:19:06.824Z,14.15
2022-11-17T01:21:34.082Z,15.30
2022-11-17T01:24:02.072Z,15.87
2022-11-17T01:26:31.609Z,15.38
2022-11-17T01:29:00.179Z,15.80
2022-11-17T01:31:29.834Z,15.05
2022-11-17T01:33:56.956Z,14.30
2022-11-17T01:36:28.774Z,13.57
2022-11-17T01:38:55.666Z,14.25
2022-11-17T01:41:27.686Z,12.43
2022-11-17T01:43:59.600Z,13.02
2022-11-17T01:46:41.330Z,11.90
2022-11-17T01:49:28.942Z,12.00
2022-11-17T01:52:07.846Z,11.50
2022-11-17T01:54:39.562Z,16.50
2022-11-17T01:57:12.475Z,17.00
2022-11-17T01:59:43.726Z,15.18
2022-11-17T02:02:10.764Z,19.57
2022-11-17T02:05:04.125Z,15.98
2022-11-17T02:07:35.433Z,14.70
2022-11-17T02:10:03.893Z,16.77
2022-11-17T02:12:32.740Z,17.00
2022-11-17T02:15:01.369Z,15.70
2022-11-17T02:17:37.617Z,15.52
2022-11-17T02:20:16.551Z,15.85
2022-11-17T02:23:07.490Z,15.20
2022-11-17T02:26:13.258Z,15.90
2022-11-17T02:29:12.531Z,16.37
2022-11-17T02:31:48.034Z,15.10
2022-11-17T02:34:30.335Z,15.70
2022-11-17T02:37:26.005Z,13.80
2022-11-17T02:40:07.820Z,14.27
2022-11-17T02:42:39.755Z,13.77
2022-11-17T02:45:09.728Z,14.90
2022-11-17T02:47:38.894Z,14.38
2022-11-17T02:50:09.355Z,15.57
2022-11-17T02:52:36.859Z,15.57
2022-11-17T02:55:10.239Z,14.87
2022-11-17T02:57:39.916Z,13.68
2022-11-17T03:00:16.311Z,13.02
2022-11-17T03:02:43.118Z,13.63
2022-11-17T03:05:19.159Z,16.33
2022-11-17T03:08:03.934Z,18.40
2022-11-17T03:10:55.538Z,14.68
2022-11-17T03:13:51.839Z,16.02
2022-11-17T03:16:28.113Z,14.48
2022-11-17T03:19:30.923Z,14.68
2022-11-17T03:22:22.751Z,13.43
2022-11-17T03:24:49.451Z,12.77
2022-11-17T03:27:21.993Z,13.20
2022-11-17T03:29:54.260Z,12.80
2022-11-17T03:32:23.555Z,12.23
2022-11-17T03:34:57.322Z,12.70
2022-11-17T03:37:29.123Z,12.57
2022-11-17T03:40:02.353Z,12.45
2022-11-17T03:42:33.613Z,11.43
2022-11-17T03:45:19.122Z,14.32
2022-11-17T03:47:46.832Z,15.00
2022-11-17T03:50:24.408Z,14.65
2022-11-17T03:52:52.439Z,15.48
2022-11-17T03:55:19.588Z,14.40
2022-11-17T03:57:54.618Z,13.50
2022-11-17T04:00:21.755Z,12.30
2022-11-17T04:02:54.331Z,11.18
2022-11-17T04:05:21.615Z,10.57
2022-11-17T04:07:48.792Z,11.80
2022-11-17T04:10:19.360Z,11.00
2022-11-17T04:12:48.153Z,8.57
2022-11-17T04:15:15.197Z,10.45
2022-11-17T04:17:42.154Z,10.48
2022-11-17T04:20:10.164Z,8.38
2022-11-17T04:22:37.034Z,9.18
2022-11-17T04:25:03.980Z,8.80
2022-11-17T04:27:30.883Z,7.80
2022-11-17T04:29:57.738Z,7.55
2022-11-17T04:32:24.479Z,7.32
2022-11-17T04:34:51.554Z,8.15
2022-11-17T04:37:18.442Z,7.00
2022-11-17T04:39:45.696Z,7.80
2022-11-17T04:42:12.788Z,8.57
2022-11-17T04:44:39.845Z,10.80
2022-11-17T04:47:06.631Z,12.65
2022-11-17T04:49:34.329Z,13.83
2022-11-17T04:52:01.316Z,13.45
2022-11-17T04:54:28.575Z,12.85
2022-11-17T04:56:55.895Z,14.25
2022-11-17T04:59:22.927Z,13.90
2022-11-17T05:01:50.053Z,14.67
2022-11-17T05:04:19.251Z,14.25
2022-11-17T05:06:46.052Z,14.77
2022-11-17T05:09:15.281Z,12.75
2022-11-17T05:11:43.399Z,20.77
2022-11-17T05:14:11.373Z,19.30
2022-11-17T05:16:38.086Z,16.42
2022-11-17T05:19:06.588Z,13.55
2022-11-17T05:21:33.557Z,10.23
2022-11-17T05:24:00.365Z,7.50
2022-11-17T05:26:33.193Z,8.13
2022-11-17T05:29:01.765Z,9.18
2022-11-17T05:31:29.392Z,7.63
2022-11-17T05:33:56.874Z,10.98
2022-11-17T05:36:27.249Z,9.00
2022-11-17T05:38:54.474Z,7.00
2022-11-17T05:41:22.413Z,7.13
2022-11-17T05:43:49.445Z,7.43
2022-11-17T05:46:17.672Z,6.95
2022-11-17T05:48:45.455Z,7.97
2022-11-17T05:51:12.471Z,8.90
2022-11-17T05:53:39.240Z,10.80
2022-11-17T05:56:30.333Z,10.63
2022-11-17T05:59:14.678Z,9.68
2022-11-17T06:01:47.179Z,6.75
2022-11-17T06:04:16.860Z,9.37
2022-11-17T06:06:44.754Z,9.68
2022-11-17T06:09:12.092Z,7.82
2022-11-17T06:11:38.856Z,7.68
2022-11-17T06:14:05.733Z,7.43
2022-11-17T06:16:38.560Z,6.27
2022-11-17T06:19:10.080Z,6.68
2022-11-17T06:22:04.511Z,15.00
2022-11-17T06:24:24.444Z,16.05
2022-11-17T06:26:51.533Z,8.77
2022-11-17T06:29:18.336Z,9.50
2022-11-17T06:31:46.423Z,10.63
2022-11-17T06:34:13.823Z,10.32
2022-11-17T06:36:40.659Z,11.70
2022-11-17T06:39:07.717Z,11.88
2022-11-17T06:41:34.525Z,12.97
2022-11-17T06:44:01.516Z,12.85
2022-11-17T06:46:28.603Z,11.43
2022-11-17T06:48:55.401Z,12.68
2022-11-17T06:51:22.230Z,13.15
2022-11-17T06:53:49.205Z,13.17
2022-11-17T06:56:15.961Z,12.55
2022-11-17T06:58:43.251Z,13.35
2022-11-17T07:01:13.997Z,12.52
2022-11-17T07:03:42.961Z,11.25
2022-11-17T07:06:12.163Z,9.53
2022-11-17T07:08:40.382Z,9.77
2022-11-17T07:11:12.843Z,9.85
2022-11-17T07:13:42.225Z,9.40
2022-11-17T07:16:23.500Z,9.10
2022-11-17T07:18:54.814Z,10.47
2022-11-17T07:21:22.866Z,12.30
2022-11-17T07:23:49.761Z,13.35
2022-11-17T07:26:17.213Z,13.75
2022-11-17T07:28:44.488Z,13.50
2022-11-17T07:31:11.403Z,13.47
2022-11-17T07:33:38.485Z,14.93
2022-11-17T07:36:07.639Z,20.38
2022-11-17T07:38:36.030Z,31.80
2022-11-17T07:41:04.977Z,26.05
2022-11-17T07:43:34.544Z,18.23
2022-11-17T07:46:10.451Z,16.27
2022-11-17T07:48:37.657Z,20.38
2022-11-17T07:51:05.643Z,17.73
2022-11-17T07:53:33.837Z,36.85
2022-11-17T07:56:06.692Z,16.07
2022-11-17T07:58:34.212Z,8.60
2022-11-17T08:01:12.936Z,9.80
2022-11-17T08:03:40.351Z,58.53
2022-11-17T08:06:08.725Z,43.72
2022-11-17T08:08:37.617Z,8.87
2022-11-17T08:11:28.298Z,6.07
2022-11-17T08:13:58.646Z,5.50
2022-11-17T08:16:25.839Z,4.20
2022-11-17T08:18:52.956Z,3.50
2022-11-17T08:21:20.163Z,3.50
2022-11-17T08:23:53.696Z,1.92
2022-11-17T08:26:21.292Z,1.60
2022-11-17T08:28:52.155Z,1.30
2022-11-17T08:31:22.701Z,1.67
2022-11-17T08:33:49.938Z,1.40
2022-11-17T08:36:16.900Z,1.60
2022-11-17T08:38:44.019Z,1.20
2022-11-17T08:41:10.939Z,2.10
2022-11-17T08:43:37.725Z,2.33
2022-11-17T08:46:05.085Z,1.80
2022-11-17T08:48:32.727Z,1.95
2022-11-17T08:51:05.797Z,1.42
2022-11-17T08:53:33.131Z,1.27
2022-11-17T08:56:00.337Z,1.70
2022-11-17T08:58:27.053Z,2.20
2022-11-17T09:00:54.418Z,1.70
2022-11-17T09:03:21.391Z,2.10
2022-11-17T09:05:48.443Z,2.08
2022-11-17T09:08:43.845Z,2.15
2022-11-17T09:11:11.141Z,2.50
2022-11-17T09:13:39.209Z,2.70
2022-11-17T09:16:09.160Z,3.25
2022-11-17T09:18:37.102Z,3.58
2022-11-17T09:21:08.822Z,3.80
2022-11-17T09:23:36.376Z,2.93
2022-11-17T09:26:11.600Z,1.90
2022-11-17T09:28:38.949Z,2.00
2022-11-17T09:31:11.685Z,1.48
2022-11-17T09:33:38.895Z,1.42
2022-11-17T09:36:06.236Z,1.43
2022-11-17T09:38:33.891Z,1.60
2022-11-17T09:41:09.781Z,1.50
2022-11-17T09:43:38.836Z,1.58
2022-11-17T09:46:45.338Z,1.70
2022-11-17T09:49:20.362Z,0.70
2022-11-17T09:51:50.444Z,0.70
2022-11-17T09:54:26.778Z,0.95
2022-11-17T09:56:56.167Z,0.80
2022-11-17T09:59:27.931Z,0.68
2022-11-17T10:01:54.893Z,1.03
2022-11-17T10:04:22.658Z,0.90
2022-11-17T10:06:50.656Z,0.75
2022-11-17T10:09:26.523Z,0.60
2022-11-17T10:11:59.753Z,0.90
2022-11-17T10:14:28.893Z,0.73
2022-11-17T10:16:58.327Z,0.57
2022-11-17T10:19:27.803Z,0.70
2022-11-17T10:21:59.204Z,1.23
2022-11-17T10:24:38.158Z,0.70
2022-11-17T10:27:15.442Z,0.53
2022-11-17T10:29:42.319Z,0.63
2022-11-17T10:32:14.962Z,0.65
2022-11-17T10:34:41.941Z,0.85
2022-11-17T10:37:14.647Z,0.85
2022-11-17T10:39:43.219Z,0.80
2022-11-17T10:42:26.765Z,0.95
2022-11-17T10:44:58.607Z,1.15
2022-11-17T10:47:30.008Z,1.33
2022-11-17T10:50:06.232Z,0.95
2022-11-17T10:52:33.078Z,1.10
2022-11-17T10:55:33.725Z,1.08
2022-11-17T10:58:09.200Z,0.98
2022-11-17T11:00:37.593Z,0.80
2022-11-17T11:03:19.407Z,0.90
2022-11-17T11:06:02.807Z,1.50
2022-11-17T11:08:55.805Z,1.30
2022-11-17T11:11:49.969Z,1.20
2022-11-17T11:14:39.329Z,1.10
2022-11-17T11:17:17.280Z,0.88
2022-11-17T11:19:51.584Z,0.93
2022-11-17T11:22:47.755Z,1.48
2022-11-17T11:26:05.611Z,1.38
2022-11-17T11:28:42.687Z,0.95
2022-11-17T11:31:24.363Z,1.30
2022-11-17T11:34:15.636Z,0.90
2022-11-17T11:36:59.441Z,0.88
2022-11-17T11:39:32.440Z,0.93
2022-11-17T11:42:37.892Z,0.90
2022-11-17T11:45:19.373Z,1.05
2022-11-17T11:48:21.040Z,1.67
2022-11-17T11:50:53.096Z,1.33
2022-11-17T11:53:45.960Z,1.23
2022-11-17T11:56:19.340Z,1.27
2022-11-17T11:58:59.165Z,1.60
2022-11-17T12:01:29.089Z,1.23
2022-11-17T12:04:31.198Z,1.52
2022-11-17T12:07:48.436Z,1.27
2022-11-17T12:10:35.612Z,0.63
2022-11-17T12:13:04.602Z,1.70
2022-11-17T12:15:36.274Z,1.00
2022-11-17T12:18:18.195Z,1.15
2022-11-17T12:20:56.926Z,1.25
2022-11-17T12:23:42.002Z,1.00
2022-11-17T12:26:22.200Z,1.58
2022-11-17T12:28:49.325Z,1.50
2022-11-17T12:31:25.087Z,1.30
2022-11-17T12:34:21.123Z,1.20
2022-11-17T12:37:23.552Z,1.10
2022-11-17T12:40:02.187Z,1.48
2022-11-17T12:42:30.654Z,1.30
2022-11-17T12:45:05.561Z,1.40
2022-11-17T12:47:38.132Z,1.90
2022-11-17T12:50:23.139Z,1.25
2022-11-17T12:52:52.800Z,1.70
2022-11-17T12:55:28.853Z,1.20
2022-11-17T12:58:18.776Z,1.33
2022-11-17T13:01:13.862Z,1.42
2022-11-17T13:03:41.141Z,1.35
2022-11-17T13:06:34.369Z,1.88
2022-11-17T13:09:00.236Z,2.93
2022-11-17T13:11:28.918Z,2.05
2022-11-17T13:14:10.174Z,1.58
2022-11-17T13:16:44.726Z,1.10
2022-11-17T13:19:34.938Z,1.70
2022-11-17T13:22:11.443Z,1.43
2022-11-17T13:24:40.875Z,1.98
2022-11-17T13:27:21.304Z,1.65
2022-11-17T13:29:49.123Z,1.90
2022-11-17T13:32:20.272Z,2.95
2022-11-17T13:34:49.930Z,2.40
2022-11-17T13:37:26.086Z,1.92
2022-11-17T13:40:01.826Z,2.20
2022-11-17T13:42:33.398Z,2.58
2022-11-17T13:45:03.121Z,2.83
2022-11-17T13:47:39.013Z,1.80
2022-11-17T13:50:32.872Z,1.48
2022-11-17T13:53:13.163Z,2.15
2022-11-17T13:55:47.330Z,1.52
2022-11-17T13:58:27.095Z,1.52
2022-11-17T14:00:56.621Z,1.93
2022-11-17T14:03:40.275Z,2.90
2022-11-17T14:06:10.529Z,3.60
2022-11-17T14:08:39.848Z,2.05
2022-11-17T14:11:13.447Z,1.42
2022-11-17T14:13:54.962Z,2.70
2022-11-17T14:16:34.432Z,2.25
2022-11-17T14:19:23.515Z,1.85
2022-11-17T14:22:30.936Z,1.90
2022-11-17T14:24:59.044Z,2.00
2022-11-17T14:27:31.878Z,1.90
2022-11-17T14:29:58.915Z,2.00
2022-11-17T14:32:25.860Z,1.55
2022-11-17T14:34:53.193Z,1.33
2022-11-17T14:37:20.281Z,1.20
2022-11-17T14:39:47.125Z,1.60
2022-11-17T14:42:14.377Z,1.30
2022-11-17T14:44:41.897Z,1.20
2022-11-17T14:47:08.647Z,1.42
2022-11-17T14:49:35.651Z,1.13
2022-11-17T14:52:02.649Z,1.30
2022-11-17T14:54:29.623Z,1.40
2022-11-17T14:56:56.517Z,1.23
2022-11-17T14:59:23.725Z,1.50
2022-11-17T15:01:50.691Z,2.10
2022-11-17T15:07:05.248Z,3.67
2022-11-17T15:09:32.602Z,3.53
2022-11-17T15:11:59.719Z,3.55
2022-11-17T15:14:26.611Z,2.30
2022-11-17T15:16:53.454Z,2.83
2022-11-17T15:19:20.277Z,3.20
2022-11-17T15:21:47.098Z,3.13
2022-11-17T15:24:14.366Z,1.98
2022-11-17T15:26:41.373Z,2.35
2022-11-17T15:29:12.359Z,1.93
2022-11-17T15:31:39.297Z,1.30
2022-11-17T15:34:06.276Z,1.80
2022-11-17T15:36:33.216Z,1.52
2022-11-17T15:39:00.363Z,1.30
2022-11-17T15:41:32.646Z,1.47
2022-11-17T15:43:59.960Z,4.05
2022-11-17T15:46:27.082Z,3.20
2022-11-17T15:48:56.197Z,2.30
2022-11-17T15:51:26.094Z,2.50
2022-11-17T15:53:56.639Z,1.90
2022-11-17T15:56:26.553Z,3.40
2022-11-17T15:59:00.918Z,4.95
2022-11-17T16:01:30.013Z,4.00
2022-11-17T16:03:59.762Z,4.68
2022-11-17T16:06:27.435Z,4.57
2022-11-17T16:08:54.836Z,3.85
2022-11-17T16:11:22.170Z,5.80
2022-11-17T16:13:51.976Z,5.20
2022-11-17T16:16:19.157Z,4.57
2022-11-17T16:18:47.096Z,4.23
2022-11-17T16:21:15.335Z,3.08
2022-11-17T16:23:50.127Z,2.92
2022-11-17T16:26:18.969Z,2.20
2022-11-17T16:28:46.007Z,13.35
2022-11-17T16:31:23.845Z,7.00
2022-11-17T16:33:55.773Z,10.13
2022-11-17T16:36:24.874Z,8.13
2022-11-17T16:39:01.283Z,5.72
2022-11-17T16:41:32.892Z,3.17
2022-11-17T16:44:00.919Z,2.20
2022-11-17T16:46:30.700Z,2.17
2022-11-17T16:49:02.475Z,2.30
2022-11-17T16:51:29.500Z,3.60
2022-11-17T16:53:58.965Z,1.48
2022-11-17T16:56:26.073Z,1.03
2022-11-17T16:58:53.054Z,1.00
2022-11-17T17:01:26.760Z,1.10
2022-11-17T17:04:05.441Z,2.22
2022-11-17T17:06:33.203Z,2.72
2022-11-17T17:09:06.078Z,1.43
2022-11-17T17:11:34.666Z,7.78
2022-11-17T17:14:05.940Z,19.15
2022-11-17T17:16:34.889Z,9.15
2022-11-17T17:19:04.110Z,7.18
2022-11-17T17:21:32.010Z,6.63
2022-11-17T17:23:59.074Z,12.45
2022-11-17T17:26:28.679Z,13.02
2022-11-17T17:28:58.264Z,11.95
2022-11-17T17:31:27.048Z,8.43
2022-11-17T17:33:55.597Z,11.70
2022-11-17T17:36:25.357Z,18.42
2022-11-17T17:38:56.365Z,10.40
2022-11-17T17:41:26.548Z,8.85
2022-11-17T17:44:02.137Z,23.17
2022-11-17T17:46:30.251Z,16.77
2022-11-17T17:48:57.755Z,17.92
2022-11-17T17:51:26.434Z,18.80
2022-11-17T17:53:54.523Z,12.35
2022-11-17T17:56:22.760Z,11.20
2022-11-17T17:58:50.539Z,13.17
2022-11-17T18:01:28.963Z,12.30
2022-11-17T18:03:59.729Z,14.25
2022-11-17T18:06:27.519Z,17.15
2022-11-17T18:08:55.170Z,12.80
2022-11-17T18:11:22.333Z,14.10
2022-11-17T18:13:51.131Z,12.32
2022-11-17T18:16:21.678Z,13.30
2022-11-17T18:18:49.264Z,15.52
2022-11-17T18:21:19.161Z,14.32
2022-11-17T18:23:46.527Z,14.70
2022-11-17T18:26:15.655Z,14.23
2022-11-17T18:28:44.531Z,15.95
2022-11-17T18:31:12.927Z,16.58
2022-11-17T18:33:39.761Z,16.88
2022-11-17T18:36:08.688Z,15.50
2022-11-17T18:38:37.500Z,15.77
2022-11-17T18:41:04.359Z,15.73
2022-11-17T18:43:32.124Z,13.98
2022-11-17T18:46:13.443Z,16.40
2022-11-17T18:48:42.992Z,16.57
2022-11-17T18:51:19.885Z,19.23
2022-11-17T18:53:49.134Z,23.27
2022-11-17T18:56:21.315Z,20.88
2022-11-17T19:09:19.559Z,22.45
2022-11-17T19:12:20.716Z,18.80
2022-11-17T19:14:53.118Z,21.58
2022-11-17T19:17:23.853Z,18.00
2022-11-17T19:19:51.553Z,18.63
2022-11-17T19:22:18.992Z,19.20
2022-11-17T19:24:46.238Z,17.80
2022-11-17T19:30:42.033Z,29.67
2022-11-17T19:33:09.712Z,25.38
2022-11-17T19:35:38.108Z,24.75
2022-11-17T19:38:05.538Z,35.88
2022-11-17T19:43:27.554Z,24.80
2022-11-17T19:46:01.949Z,21.25
2022-11-17T19:48:30.998Z,18.80
2022-11-17T19:50:59.745Z,20.73
2022-11-17T19:53:28.122Z,24.13
2022-11-17T19:55:55.840Z,22.10
2022-11-17T19:58:23.536Z,21.13
2022-11-17T20:00:51.518Z,22.70
2022-11-17T20:03:19.188Z,22.38
2022-11-17T20:05:46.900Z,21.83
2022-11-17T20:08:14.386Z,21.70
2022-11-17T20:10:41.959Z,23.02
2022-11-17T20:13:10.306Z,25.40
2022-11-17T20:15:37.836Z,25.10
2022-11-17T20:18:05.679Z,24.88
2022-11-17T20:20:33.431Z,21.97
2022-11-17T20:23:05.273Z,24.73
2022-11-17T20:25:56.104Z,26.55
2022-11-17T20:28:23.836Z,22.25
2022-11-17T20:30:51.237Z,24.27
2022-11-17T20:33:20.944Z,26.23
2022-11-17T20:35:51.512Z,22.33
2022-11-17T20:38:30.537Z,21.50
2022-11-17T20:41:02.382Z,20.27
2022-11-17T20:44:08.626Z,23.92
2022-11-17T20:46:31.916Z,20.97
2022-11-17T20:49:24.637Z,25.42
2022-11-17T20:51:53.114Z,27.70
2022-11-17T20:54:23.664Z,29.48
2022-11-17T20:56:55.675Z,54.47
2022-11-17T20:59:37.179Z,30.67
2022-11-17T21:02:07.360Z,25.75
2022-11-17T21:04:34.621Z,23.00
2022-11-17T21:07:06.101Z,28.38
2022-11-17T21:09:39.752Z,29.13
2022-11-17T21:12:07.906Z,22.87
2022-11-17T21:14:43.987Z,27.08
2022-11-17T21:23:06.508Z,22.55
2022-11-17T21:25:38.102Z,19.30
2022-11-17T21:28:11.237Z,25.02
2022-11-17T21:30:41.699Z,25.77
2022-11-17T21:33:18.266Z,25.23
2022-11-17T21:35:49.002Z,23.33
2022-11-17T21:38:29.831Z,23.07
2022-11-17T21:41:13.481Z,23.17
2022-11-17T21:43:51.719Z,36.00
2022-11-17T21:47:43.429Z,28.45
2022-11-17T21:49:27.175Z,22.20
2022-11-17T21:52:01.401Z,23.47
2022-11-17T21:54:57.263Z,17.58
2022-11-17T21:57:25.378Z,24.58
2022-11-17T21:59:57.846Z,24.38
2022-11-17T22:02:39.427Z,17.55
2022-11-17T22:05:25.177Z,17.23
2022-11-17T22:07:59.631Z,24.60
2022-11-17T22:10:33.219Z,19.20
2022-11-17T22:13:12.703Z,20.13
2022-11-17T22:16:13.672Z,16.77
2022-11-17T22:19:07.042Z,10.33
2022-11-17T22:21:39.032Z,17.98
2022-11-17T22:24:08.423Z,18.17
2022-11-17T22:26:40.187Z,18.00
2022-11-17T22:29:11.463Z,19.95
2022-11-17T22:31:41.906Z,19.43
2022-11-17T22:34:19.545Z,19.10
2022-11-17T22:36:58.935Z,17.35
2022-11-17T22:39:31.952Z,14.60
2022-11-17T22:42:09.235Z,14.20
2022-11-17T22:44:48.829Z,13.40
2022-11-17T22:47:18.107Z,16.35
2022-11-17T22:49:48.229Z,17.05
2022-11-17T22:52:29.580Z,13.10
2022-11-17T22:58:52.360Z,13.53
2022-11-17T23:00:53.508Z,18.13
2022-11-17T23:03:21.278Z,14.75
2022-11-17T23:06:00.760Z,25.45
2022-11-17T23:08:53.059Z,16.23
2022-11-17T23:11:37.795Z,14.57
2022-11-17T23:14:15.307Z,11.93
2022-11-17T23:16:48.187Z,14.65
2022-11-17T23:19:18.915Z,11.65
2022-11-17T23:21:50.312Z,11.20
2022-11-17T23:24:21.709Z,10.47
2022-11-17T23:26:55.383Z,10.32
2022-11-17T23:29:31.430Z,8.95
2022-11-17T23:32:03.665Z,13.75
2022-11-17T23:34:40.250Z,13.05
2022-11-17T23:37:13.936Z,14.20
2022-11-17T23:39:47.175Z,12.38
2022-11-17T23:42:32.474Z,11.02
2022-11-17T23:45:13.518Z,7.75
2022-11-17T23:47:49.697Z,5.70
2022-11-17T23:50:33.303Z,6.63
2022-11-17T23:53:04.346Z,5.60
2022-11-17T23:55:36.060Z,32.72
2022-11-17T23:58:15.040Z,20.90
